createdAt,value
2022-08-01T00:00:21.979Z,25.33
2022-08-01T00:02:49.230Z,25.44
2022-08-01T00:05:16.830Z,25.36
2022-08-01T00:07:44.225Z,25.41
2022-08-01T00:10:14.860Z,25.38
2022-08-01T00:12:42.950Z,25.34
2022-08-01T00:15:12.982Z,25.31
2022-08-01T00:17:40.531Z,25.24
2022-08-01T00:20:10.776Z,25.21
2022-08-01T00:22:38.301Z,25.14
2022-08-01T00:25:06.516Z,25.21
2022-08-01T00:27:37.621Z,25.17
2022-08-01T00:30:13.473Z,25.14
2022-08-01T00:32:45.363Z,25.18
2022-08-01T00:35:13.956Z,25.09
2022-08-01T00:37:41.147Z,25.12
2022-08-01T00:40:10.191Z,25.07
2022-08-01T00:42:43.308Z,25.01
2022-08-01T00:45:12.912Z,25.06
2022-08-01T00:47:40.575Z,24.96
2022-08-01T00:50:10.597Z,24.95
2022-08-01T00:52:38.426Z,24.97
2022-08-01T00:55:05.989Z,24.94
2022-08-01T00:58:03.476Z,25.02
2022-08-01T01:00:27.153Z,24.97
2022-08-01T01:02:55.071Z,24.98
2022-08-01T01:05:22.591Z,24.97
2022-08-01T01:08:00.196Z,24.95
2022-08-01T01:10:32.088Z,24.97
2022-08-01T01:13:09.021Z,25.02
2022-08-01T01:15:42.681Z,24.99
2022-08-01T01:18:24.884Z,24.97
2022-08-01T01:21:22.417Z,24.99
2022-08-01T01:24:10.302Z,25.04
2022-08-01T01:27:01.776Z,24.96
2022-08-01T01:29:58.660Z,24.99
2022-08-01T01:32:28.659Z,25.05
2022-08-01T01:35:01.691Z,25.02
2022-08-01T01:37:33.184Z,25.03
2022-08-01T01:40:03.979Z,24.98
2022-08-01T01:42:33.182Z,25.05
2022-08-01T01:45:04.218Z,25.05
2022-08-01T01:47:33.763Z,25.07
2022-08-01T01:50:01.700Z,25.12
2022-08-01T01:52:33.063Z,25.03
2022-08-01T01:55:02.566Z,24.97
2022-08-01T01:57:31.865Z,24.99
2022-08-01T02:00:01.480Z,24.96
2022-08-01T02:02:31.488Z,24.94
2022-08-01T02:05:00.444Z,24.86
2022-08-01T02:07:29.353Z,24.88
2022-08-01T02:09:57.819Z,24.79
2022-08-01T02:12:25.592Z,24.83
2022-08-01T02:15:14.472Z,24.85
2022-08-01T02:17:46.525Z,24.82
2022-08-01T02:20:14.679Z,24.83
2022-08-01T02:23:04.003Z,24.84
2022-08-01T02:26:10.285Z,24.75
2022-08-01T02:28:40.477Z,24.84
2022-08-01T02:31:11.768Z,24.84
2022-08-01T02:33:58.540Z,24.77
2022-08-01T02:36:32.884Z,24.83
2022-08-01T02:39:04.754Z,24.75
2022-08-01T02:41:37.192Z,24.80
2022-08-01T02:44:08.176Z,24.77
2022-08-01T02:46:54.121Z,24.79
2022-08-01T02:49:23.025Z,24.83
2022-08-01T02:51:52.766Z,24.88
2022-08-01T02:54:23.481Z,24.90
2022-08-01T02:56:52.605Z,24.84
2022-08-01T02:59:26.807Z,24.84
2022-08-01T03:01:57.278Z,24.88
2022-08-01T03:04:27.779Z,24.87
2022-08-01T03:06:59.597Z,24.80
2022-08-01T03:09:28.853Z,24.83
2022-08-01T03:12:02.059Z,24.85
2022-08-01T03:14:32.095Z,24.89
2022-08-01T03:17:00.905Z,24.93
2022-08-01T03:19:31.496Z,25.01
2022-08-01T03:21:59.977Z,24.93
2022-08-01T03:24:29.621Z,24.93
2022-08-01T03:26:59.321Z,24.90
2022-08-01T03:29:30.999Z,24.83
2022-08-01T03:31:59.706Z,24.84
2022-08-01T03:34:28.727Z,24.81
2022-08-01T03:37:11.032Z,24.88
2022-08-01T03:39:53.355Z,24.88
2022-08-01T03:42:26.711Z,24.86
2022-08-01T03:45:03.856Z,24.92
2022-08-01T03:47:35.053Z,24.93
2022-08-01T03:50:12.881Z,25.07
2022-08-01T03:52:43.200Z,25.03
2022-08-01T03:55:12.999Z,24.99
2022-08-01T03:57:40.989Z,25.09
2022-08-01T04:00:10.273Z,25.18
2022-08-01T04:02:40.973Z,25.21
2022-08-01T04:05:08.768Z,25.30
2022-08-01T04:07:37.332Z,25.35
2022-08-01T04:10:05.803Z,25.38
2022-08-01T04:12:33.796Z,25.48
2022-08-01T04:15:01.151Z,25.54
2022-08-01T04:17:31.767Z,25.61
2022-08-01T04:19:59.123Z,25.70
2022-08-01T04:22:26.484Z,25.73
2022-08-01T04:24:58.640Z,25.75
2022-08-01T04:27:49.727Z,25.74
2022-08-01T04:30:28.631Z,25.65
2022-08-01T04:32:58.690Z,25.82
2022-08-01T04:36:01.989Z,25.88
2022-08-01T04:38:20.547Z,25.87
2022-08-01T04:40:48.246Z,25.85
2022-08-01T04:43:16.106Z,25.90
2022-08-01T04:45:45.955Z,25.95
2022-08-01T04:48:16.524Z,25.99
2022-08-01T04:50:43.820Z,26.03
2022-08-01T04:53:19.915Z,26.14
2022-08-01T04:55:47.681Z,26.25
2022-08-01T04:58:18.952Z,26.28
2022-08-01T05:00:49.562Z,26.40
2022-08-01T05:03:16.921Z,26.36
2022-08-01T05:05:44.090Z,26.40
2022-08-01T05:08:11.344Z,26.38
2022-08-01T05:10:38.592Z,26.35
2022-08-01T05:13:07.735Z,26.37
2022-08-01T05:15:38.826Z,26.50
2022-08-01T05:18:08.576Z,26.51
2022-08-01T05:20:36.142Z,26.62
2022-08-01T05:23:03.771Z,26.70
2022-08-01T05:25:56.650Z,26.74
2022-08-01T05:28:19.268Z,26.76
2022-08-01T05:30:46.924Z,26.68
2022-08-01T05:33:14.169Z,26.52
2022-08-01T05:35:48.183Z,26.53
2022-08-01T05:38:17.431Z,26.66
2022-08-01T05:40:44.699Z,26.74
2022-08-01T05:43:12.120Z,26.76
2022-08-01T05:45:39.498Z,26.79
2022-08-01T05:48:06.944Z,26.83
2022-08-01T05:50:34.900Z,26.93
2022-08-01T05:53:02.204Z,26.96
2022-08-01T05:55:29.845Z,27.10
2022-08-01T05:57:58.064Z,27.11
2022-08-01T06:00:25.364Z,27.09
2022-08-01T06:02:53.044Z,27.12
2022-08-01T06:05:20.345Z,27.12
2022-08-01T06:07:47.880Z,27.23
2022-08-01T06:10:15.090Z,27.30
2022-08-01T06:12:42.469Z,27.46
2022-08-01T06:15:09.918Z,27.59
2022-08-01T06:17:37.259Z,27.67
2022-08-01T06:20:07.277Z,27.72
2022-08-01T06:22:34.622Z,27.80
2022-08-01T06:25:02.194Z,27.88
2022-08-01T06:27:30.806Z,27.91
2022-08-01T06:29:58.229Z,27.89
2022-08-01T06:32:26.704Z,28.12
2022-08-01T06:34:55.874Z,28.05
2022-08-01T06:37:24.445Z,28.01
2022-08-01T06:39:51.709Z,28.13
2022-08-01T06:42:19.182Z,28.10
2022-08-01T06:44:46.828Z,28.22
2022-08-01T06:47:14.190Z,28.31
2022-08-01T06:49:41.427Z,28.38
2022-08-01T06:52:09.161Z,28.41
2022-08-01T06:54:36.858Z,28.42
2022-08-01T06:57:07.672Z,28.53
2022-08-01T06:59:35.038Z,28.67
2022-08-01T07:02:04.123Z,28.64
2022-08-01T07:04:33.342Z,28.59
2022-08-01T07:07:00.870Z,28.60
2022-08-01T07:09:28.572Z,28.69
2022-08-01T07:11:56.761Z,28.85
2022-08-01T07:14:24.835Z,28.91
2022-08-01T07:16:52.442Z,28.90
2022-08-01T07:19:19.968Z,29.08
2022-08-01T07:21:50.122Z,29.07
2022-08-01T07:24:20.844Z,29.12
2022-08-01T07:26:53.306Z,29.20
2022-08-01T07:29:25.048Z,29.39
2022-08-01T07:31:54.410Z,29.40
2022-08-01T07:34:22.901Z,29.36
2022-08-01T07:36:51.354Z,29.45
2022-08-01T07:39:18.685Z,29.43
2022-08-01T07:42:06.651Z,29.48
2022-08-01T07:44:33.920Z,29.55
2022-08-01T07:47:01.117Z,29.73
2022-08-01T07:49:28.785Z,29.78
2022-08-01T07:52:03.294Z,29.82
2022-08-01T07:54:35.316Z,29.87
2022-08-01T07:57:04.248Z,29.90
2022-08-01T07:59:31.662Z,30.01
2022-08-01T08:01:59.431Z,30.09
2022-08-01T08:04:28.400Z,30.05
2022-08-01T08:06:55.880Z,30.11
2022-08-01T08:09:24.237Z,30.21
2022-08-01T08:11:51.467Z,30.17
2022-08-01T08:14:19.731Z,30.26
2022-08-01T08:16:47.178Z,30.27
2022-08-01T08:19:14.575Z,30.34
2022-08-01T08:21:42.994Z,30.33
2022-08-01T08:24:26.278Z,30.44
2022-08-01T08:27:02.134Z,30.57
2022-08-01T08:29:31.919Z,30.56
2022-08-01T08:32:00.210Z,30.55
2022-08-01T08:34:29.030Z,30.59
2022-08-01T08:36:58.859Z,30.69
2022-08-01T08:39:27.003Z,30.67
2022-08-01T08:41:54.474Z,30.83
2022-08-01T08:44:22.282Z,30.88
2022-08-01T08:46:57.026Z,30.95
2022-08-01T08:49:27.604Z,31.03
2022-08-01T08:52:05.400Z,31.14
2022-08-01T08:54:33.821Z,31.21
2022-08-01T08:57:02.995Z,31.24
2022-08-01T08:59:31.071Z,31.26
2022-08-01T09:01:59.519Z,31.30
2022-08-01T09:04:27.579Z,31.39
2022-08-01T09:06:55.810Z,31.46
2022-08-01T09:09:24.575Z,31.49
2022-08-01T09:11:57.635Z,31.57
2022-08-01T09:14:28.475Z,31.43
2022-08-01T09:17:07.730Z,31.56
2022-08-01T09:19:49.198Z,31.54
2022-08-01T09:22:22.530Z,31.62
2022-08-01T09:25:05.160Z,31.63
2022-08-01T09:27:33.770Z,31.64
2022-08-01T09:30:23.472Z,31.68
2022-08-01T09:33:06.322Z,31.75
2022-08-01T09:35:43.781Z,31.77
2022-08-01T09:38:19.994Z,31.81
2022-08-01T09:41:01.392Z,31.87
2022-08-01T09:43:31.922Z,31.86
2022-08-01T09:46:01.443Z,31.91
2022-08-01T09:48:30.205Z,31.79
2022-08-01T09:51:00.955Z,31.95
2022-08-01T09:53:47.473Z,32.01
2022-08-01T09:56:21.216Z,32.07
2022-08-01T09:58:58.441Z,32.16
2022-08-01T10:01:27.576Z,32.28
2022-08-01T10:04:17.030Z,32.30
2022-08-01T10:06:50.941Z,32.34
2022-08-01T10:09:39.836Z,32.42
2022-08-01T10:12:20.248Z,32.50
2022-08-01T10:14:56.690Z,32.53
2022-08-01T10:17:51.271Z,32.62
2022-08-01T10:20:29.666Z,32.65
2022-08-01T10:23:02.139Z,32.69
2022-08-01T10:25:44.005Z,32.68
2022-08-01T10:28:23.806Z,32.72
2022-08-01T10:30:53.380Z,32.75
2022-08-01T10:33:52.758Z,32.69
2022-08-01T10:36:12.222Z,32.78
2022-08-01T10:38:40.759Z,32.90
2022-08-01T10:41:09.095Z,32.91
2022-08-01T10:43:37.226Z,32.86
2022-08-01T10:46:05.922Z,32.87
2022-08-01T10:48:47.609Z,32.92
2022-08-01T10:51:18.788Z,32.88
2022-08-01T10:53:54.286Z,32.93
2022-08-01T10:56:27.099Z,32.92
2022-08-01T10:59:06.323Z,33.04
2022-08-01T11:01:44.862Z,33.01
2022-08-01T11:04:17.729Z,33.04
2022-08-01T11:07:06.666Z,32.98
2022-08-01T11:09:47.063Z,33.03
2022-08-01T11:12:22.965Z,32.98
2022-08-01T11:15:00.393Z,33.04
2022-08-01T11:17:42.136Z,33.01
2022-08-01T11:20:23.675Z,33.02
2022-08-01T11:23:00.531Z,33.10
2022-08-01T11:26:03.882Z,33.11
2022-08-01T11:28:32.841Z,33.10
2022-08-01T11:31:11.550Z,33.25
2022-08-01T11:33:45.868Z,33.28
2022-08-01T11:36:15.467Z,33.26
2022-08-01T11:38:48.258Z,33.31
2022-08-01T11:41:38.169Z,33.32
2022-08-01T11:44:10.145Z,33.34
2022-08-01T11:47:09.238Z,33.35
2022-08-01T11:49:38.471Z,33.29
2022-08-01T11:52:08.693Z,33.24
2022-08-01T11:54:52.541Z,33.22
2022-08-01T11:57:23.222Z,33.41
2022-08-01T12:00:03.416Z,33.41
2022-08-01T12:02:40.922Z,33.37
2022-08-01T12:05:15.667Z,33.37
2022-08-01T12:07:47.025Z,33.39
2022-08-01T12:10:23.220Z,33.41
2022-08-01T12:12:53.115Z,33.38
2022-08-01T12:15:23.326Z,33.43
2022-08-01T12:17:59.074Z,33.54
2022-08-01T12:20:56.738Z,33.69
2022-08-01T12:23:25.256Z,33.70
2022-08-01T12:25:53.806Z,33.76
2022-08-01T12:28:20.997Z,33.74
2022-08-01T12:30:49.717Z,33.75
2022-08-01T12:33:19.703Z,33.80
2022-08-01T12:35:47.811Z,33.83
2022-08-01T12:38:18.199Z,33.88
2022-08-01T12:40:51.505Z,33.92
2022-08-01T12:43:28.533Z,33.92
2022-08-01T12:46:00.818Z,33.85
2022-08-01T12:48:31.219Z,33.84
2022-08-01T12:51:01.715Z,33.92
2022-08-01T12:53:41.067Z,33.96
2022-08-01T12:56:13.924Z,33.99
2022-08-01T12:58:41.468Z,33.86
2022-08-01T13:01:11.160Z,33.92
2022-08-01T13:03:39.386Z,33.91
2022-08-01T13:06:16.601Z,33.95
2022-08-01T13:08:44.826Z,33.86
2022-08-01T13:11:18.465Z,33.84
2022-08-01T13:13:51.389Z,33.88
2022-08-01T13:16:30.221Z,33.88
2022-08-01T13:19:07.310Z,33.76
2022-08-01T13:21:53.922Z,33.78
2022-08-01T13:24:28.632Z,33.88
2022-08-01T13:27:04.842Z,33.99
2022-08-01T13:29:39.947Z,33.96
2022-08-01T13:32:27.645Z,33.98
2022-08-01T13:35:09.798Z,33.96
2022-08-01T13:37:39.244Z,33.83
2022-08-01T13:40:11.460Z,33.79
2022-08-01T13:42:39.236Z,33.79
2022-08-01T13:45:13.997Z,33.75
2022-08-01T13:48:11.634Z,33.77
2022-08-01T13:50:34.235Z,33.76
2022-08-01T13:53:02.292Z,33.77
2022-08-01T13:55:34.653Z,33.78
2022-08-01T13:58:02.936Z,33.79
2022-08-01T14:00:30.439Z,33.70
2022-08-01T14:02:57.925Z,33.74
2022-08-01T14:05:26.168Z,33.74
2022-08-01T14:07:56.480Z,33.72
2022-08-01T14:10:25.842Z,33.78
2022-08-01T14:12:53.085Z,33.83
2022-08-01T14:15:38.419Z,33.86
2022-08-01T14:18:11.235Z,33.86
2022-08-01T14:20:39.485Z,33.88
2022-08-01T14:23:08.764Z,33.87
2022-08-01T14:26:02.660Z,33.88
2022-08-01T14:28:31.155Z,33.97
2022-08-01T14:33:54.208Z,33.90
2022-08-01T14:36:30.510Z,33.94
2022-08-01T14:39:00.777Z,33.92
2022-08-01T14:41:30.764Z,33.97
2022-08-01T14:44:00.838Z,33.93
2022-08-01T14:46:28.396Z,34.03
2022-08-01T14:48:58.892Z,33.94
2022-08-01T14:51:26.604Z,33.97
2022-08-01T14:53:54.123Z,33.91
2022-08-01T14:56:21.529Z,33.89
2022-08-01T14:58:48.898Z,33.84
2022-08-01T15:01:16.336Z,33.83
2022-08-01T15:03:43.742Z,33.86
2022-08-01T15:06:12.600Z,33.82
2022-08-01T15:08:40.496Z,33.81
2022-08-01T15:11:09.090Z,33.80
2022-08-01T15:13:41.891Z,33.78
2022-08-01T15:16:09.946Z,33.82
2022-08-01T15:18:39.445Z,33.78
2022-08-01T15:21:07.131Z,33.77
2022-08-01T15:23:34.244Z,33.70
2022-08-01T15:26:01.609Z,33.75
2022-08-01T15:28:28.857Z,33.74
2022-08-01T15:30:58.808Z,33.75
2022-08-01T15:33:26.260Z,33.70
2022-08-01T15:35:53.955Z,33.74
2022-08-01T15:38:22.836Z,33.68
2022-08-01T15:40:50.225Z,33.72
2022-08-01T15:43:17.498Z,33.71
2022-08-01T15:45:48.666Z,33.71
2022-08-01T15:48:17.694Z,33.70
2022-08-01T15:50:46.975Z,33.62
2022-08-01T15:53:14.634Z,33.67
2022-08-01T15:55:42.169Z,33.61
2022-08-01T15:58:19.597Z,33.57
2022-08-01T16:00:46.820Z,33.51
2022-08-01T16:03:14.353Z,33.57
2022-08-01T16:05:44.345Z,33.54
2022-08-01T16:08:13.636Z,33.49
2022-08-01T16:10:43.596Z,33.56
2022-08-01T16:13:11.802Z,33.53
2022-08-01T16:15:39.580Z,33.48
2022-08-01T16:18:16.660Z,33.40
2022-08-01T16:20:46.039Z,33.41
2022-08-01T16:23:15.226Z,33.32
2022-08-01T16:25:44.227Z,33.29
2022-08-01T16:28:12.136Z,33.25
2022-08-01T16:30:50.929Z,33.18
2022-08-01T16:33:41.431Z,33.09
2022-08-01T16:36:16.928Z,33.11
2022-08-01T16:38:45.115Z,33.11
2022-08-01T16:41:20.346Z,33.06
2022-08-01T16:43:53.447Z,33.07
2022-08-01T16:46:24.059Z,33.02
2022-08-01T16:48:51.766Z,33.03
2022-08-01T16:51:20.209Z,32.98
2022-08-01T16:53:47.431Z,32.96
2022-08-01T16:56:14.797Z,32.90
2022-08-01T16:58:42.745Z,32.89
2022-08-01T17:01:58.618Z,32.85
2022-08-01T17:04:01.225Z,32.80
2022-08-01T17:06:29.914Z,32.70
2022-08-01T17:08:57.047Z,32.74
2022-08-01T17:11:24.347Z,32.69
2022-08-01T17:13:51.532Z,32.58
2022-08-01T17:16:19.062Z,32.55
2022-08-01T17:18:46.311Z,32.52
2022-08-01T17:21:13.629Z,32.51
2022-08-01T17:23:41.114Z,32.50
2022-08-01T17:26:08.289Z,32.49
2022-08-01T17:28:35.690Z,32.43
2022-08-01T17:31:02.942Z,32.42
2022-08-01T17:34:04.717Z,32.30
2022-08-01T17:36:32.128Z,32.31
2022-08-01T17:38:59.994Z,32.25
2022-08-01T17:41:27.304Z,32.31
2022-08-01T17:43:54.673Z,32.29
2022-08-01T17:46:21.997Z,32.26
2022-08-01T17:48:50.007Z,32.19
2022-08-01T17:51:22.495Z,32.18
2022-08-01T17:53:56.945Z,32.19
2022-08-01T17:56:27.249Z,32.15
2022-08-01T17:58:54.509Z,32.11
2022-08-01T18:01:22.068Z,32.03
2022-08-01T18:03:55.638Z,32.02
2022-08-01T18:06:25.127Z,31.79
2022-08-01T18:08:55.220Z,31.92
2022-08-01T18:11:24.745Z,31.91
2022-08-01T18:13:57.841Z,31.85
2022-08-01T18:16:27.267Z,31.81
2022-08-01T18:18:56.159Z,31.82
2022-08-01T18:21:23.886Z,31.81
2022-08-01T18:23:52.095Z,31.73
2022-08-01T18:26:23.162Z,31.74
2022-08-01T18:28:50.847Z,31.67
2022-08-01T18:31:20.582Z,31.65
2022-08-01T18:33:48.712Z,31.60
2022-08-01T18:36:28.291Z,31.59
2022-08-01T18:39:01.768Z,31.56
2022-08-01T18:41:30.964Z,31.52
2022-08-01T18:44:03.864Z,31.42
2022-08-01T18:46:33.319Z,31.44
2022-08-01T18:49:00.647Z,31.31
2022-08-01T18:51:28.762Z,31.30
2022-08-01T18:53:57.963Z,31.27
2022-08-01T18:56:25.433Z,31.29
2022-08-01T18:58:54.676Z,31.22
2022-08-01T19:01:22.992Z,31.12
2022-08-01T19:03:50.495Z,31.15
2022-08-01T19:06:18.048Z,31.17
2022-08-01T19:08:46.180Z,31.15
2022-08-01T19:11:13.606Z,31.07
2022-08-01T19:13:41.191Z,31.01
2022-08-01T19:16:08.724Z,30.97
2022-08-01T19:18:36.027Z,30.90
2022-08-01T19:21:06.832Z,30.95
2022-08-01T19:23:53.649Z,30.83
2022-08-01T19:26:26.055Z,30.90
2022-08-01T19:29:01.516Z,30.85
2022-08-01T19:31:29.806Z,30.84
2022-08-01T19:33:57.930Z,30.82
2022-08-01T19:36:25.513Z,30.75
2022-08-01T19:38:54.804Z,30.66
2022-08-01T19:41:23.168Z,30.75
2022-08-01T19:43:51.667Z,30.70
2022-08-01T19:46:19.075Z,30.61
2022-08-01T19:48:53.089Z,30.59
2022-08-01T19:51:33.019Z,30.69
2022-08-01T19:54:05.251Z,30.62
2022-08-01T19:56:40.574Z,30.76
2022-08-01T19:59:09.141Z,30.71
2022-08-01T20:01:37.438Z,30.62
2022-08-01T20:04:05.227Z,30.72
2022-08-01T20:06:35.009Z,30.71
2022-08-01T20:09:03.434Z,30.67
2022-08-01T20:11:31.625Z,30.66
2022-08-01T20:14:00.636Z,30.64
2022-08-01T20:16:29.476Z,30.52
2022-08-01T20:18:56.998Z,30.42
2022-08-01T20:21:26.979Z,30.48
2022-08-01T20:24:02.775Z,30.50
2022-08-01T20:26:31.549Z,30.48
2022-08-01T20:29:00.795Z,30.49
2022-08-01T20:31:33.948Z,30.48
2022-08-01T20:34:15.671Z,30.39
2022-08-01T20:36:54.359Z,30.27
2022-08-01T20:39:24.599Z,30.26
2022-08-01T20:42:00.235Z,30.25
2022-08-01T20:44:32.624Z,30.15
2022-08-01T20:47:01.433Z,30.17
2022-08-01T20:49:29.811Z,29.93
2022-08-01T20:51:57.310Z,30.08
2022-08-01T20:54:24.557Z,30.11
2022-08-01T20:57:00.762Z,30.14
2022-08-01T20:59:56.731Z,30.12
2022-08-01T21:02:52.440Z,30.06
2022-08-01T21:05:30.452Z,30.09
2022-08-01T21:08:24.451Z,30.13
2022-08-01T21:10:57.878Z,30.12
2022-08-01T21:13:45.890Z,30.06
2022-08-01T21:16:24.166Z,30.07
2022-08-01T21:19:19.682Z,29.93
2022-08-01T21:22:00.916Z,30.07
2022-08-01T21:24:42.169Z,30.03
2022-08-01T21:27:10.315Z,29.98
2022-08-01T21:29:38.576Z,29.99
2022-08-01T21:32:15.594Z,30.05
2022-08-01T21:34:47.235Z,30.08
2022-08-01T21:37:17.409Z,30.03
2022-08-01T21:39:46.143Z,29.91
2022-08-01T21:42:18.993Z,29.95
2022-08-01T21:44:47.668Z,29.99
2022-08-01T21:47:16.762Z,29.95
2022-08-01T21:49:44.723Z,29.83
2022-08-01T21:52:21.827Z,29.86
2022-08-01T21:55:05.286Z,29.94
2022-08-01T21:57:53.632Z,29.92
2022-08-01T22:00:25.503Z,29.92
2022-08-01T22:03:12.069Z,29.92
2022-08-01T22:05:50.207Z,29.83
2022-08-01T22:08:44.806Z,29.77
2022-08-01T22:11:15.262Z,29.88
2022-08-01T22:13:42.523Z,29.86
2022-08-01T22:16:13.091Z,29.84
2022-08-01T22:18:40.310Z,29.84
2022-08-01T22:21:08.438Z,29.82
2022-08-01T22:23:37.020Z,29.83
2022-08-01T22:26:09.591Z,29.85
2022-08-01T22:28:38.653Z,29.88
2022-08-01T22:31:06.979Z,29.85
2022-08-01T22:33:39.106Z,29.85
2022-08-01T22:36:07.742Z,29.77
2022-08-01T22:38:35.559Z,29.80
2022-08-01T22:41:09.525Z,29.79
2022-08-01T22:43:50.272Z,29.94
2022-08-01T22:46:48.334Z,29.85
2022-08-01T22:49:50.093Z,29.86
2022-08-01T22:52:24.429Z,29.84
2022-08-01T22:55:06.089Z,29.80
2022-08-01T22:57:51.188Z,29.84
2022-08-01T23:00:19.064Z,29.79
2022-08-01T23:02:48.313Z,29.79
2022-08-01T23:05:23.331Z,29.72
2022-08-01T23:07:53.909Z,29.70
2022-08-01T23:10:24.075Z,29.71
2022-08-01T23:12:52.684Z,29.71
2022-08-01T23:15:21.668Z,29.68
2022-08-01T23:17:49.749Z,29.65
2022-08-01T23:20:18.277Z,29.65
2022-08-01T23:22:45.570Z,29.66
2022-08-01T23:25:17.075Z,29.59
2022-08-01T23:27:51.830Z,29.64
2022-08-01T23:30:35.315Z,29.66
2022-08-01T23:33:02.837Z,29.67
2022-08-01T23:35:30.987Z,29.61
2022-08-01T23:38:02.710Z,29.57
2022-08-01T23:40:32.641Z,29.66
2022-08-01T23:43:02.034Z,29.61
2022-08-01T23:45:38.203Z,29.60
2022-08-01T23:48:17.914Z,29.67
2022-08-01T23:50:45.124Z,29.53
2022-08-01T23:53:13.088Z,29.50
2022-08-01T23:55:43.244Z,29.53
2022-08-01T23:58:12.061Z,29.53
